Time;durP1;ratioP1;P1;durP2;ratioP2;P2;SDS_P1;SDS_P2;PMS_P1;PMS_P2;Temp;Humidity;BMP_temperature;BMP_pressure;BME280_temperature;BME280_humidity;BME280_pressure;Samples;Min_cycle;Max_cycle;Signal;HPM_P1;HPM_P2
2023/06/23 00:00:11;;;;;;;11.13;6.38;;;27.70;99.90;;;;;;5073423;28;20021;-54
2023/06/23 00:02:39;;;;;;;10.73;6.68;;;27.50;99.90;;;;;;5063330;28;20492;-52
2023/06/23 00:05:07;;;;;;;10.20;6.15;;;27.50;99.90;;;;;;5060953;28;20154;-52
2023/06/23 00:07:33;;;;;;;11.85;6.68;;;27.50;99.90;;;;;;5074692;28;20039;-55
2023/06/23 00:09:59;;;;;;;7.35;6.15;;;27.50;99.90;;;;;;5072934;28;20029;-53
2023/06/23 00:12:25;;;;;;;8.27;6.00;;;27.30;99.90;;;;;;5075193;28;20385;-54
2023/06/23 00:14:50;;;;;;;9.82;5.80;;;27.40;99.90;;;;;;5073957;28;20035;-52
2023/06/23 00:17:16;;;;;;;9.60;6.07;;;27.40;99.90;;;;;;5070565;28;20017;-53
2023/06/23 00:19:42;;;;;;;8.55;6.10;;;27.30;99.90;;;;;;5072912;28;20016;-51
2023/06/23 00:22:07;;;;;;;7.38;6.03;;;27.20;99.90;;;;;;5074210;28;20029;-52
2023/06/23 00:24:33;;;;;;;12.27;6.18;;;27.20;99.90;;;;;;5073708;28;20115;-51
2023/06/23 00:27:00;;;;;;;10.60;6.30;;;27.30;99.90;;;;;;5073906;28;20028;-51
2023/06/23 00:29:26;;;;;;;9.48;6.72;;;27.30;99.90;;;;;;5061145;28;20024;-50
2023/06/23 00:31:51;;;;;;;12.40;6.32;;;27.30;99.90;;;;;;5072915;28;20032;-53
2023/06/23 00:34:17;;;;;;;9.90;6.40;;;27.20;99.90;;;;;;5074623;28;20052;-52
2023/06/23 00:36:43;;;;;;;13.38;6.28;;;27.10;99.90;;;;;;5072862;28;20028;-51
2023/06/23 00:39:08;;;;;;;9.57;6.18;;;27.20;99.90;;;;;;5058265;28;20033;-52
2023/06/23 00:41:34;;;;;;;11.95;6.68;;;27.30;99.90;;;;;;5068458;28;20458;-55
2023/06/23 00:44:00;;;;;;;11.52;6.38;;;27.40;99.90;;;;;;5072464;28;20068;-52
2023/06/23 00:46:27;;;;;;;9.20;6.68;;;27.30;99.90;;;;;;5074577;28;20024;-54
2023/06/23 00:48:53;;;;;;;9.55;6.50;;;27.20;99.90;;;;;;5073362;28;20032;-50
2023/06/23 00:51:22;;;;;;;8.48;7.03;;;27.30;99.90;;;;;;5071802;28;20032;-48
2023/06/23 00:53:48;;;;;;;12.63;6.05;;;27.20;99.90;;;;;;5073239;28;20123;-51
2023/06/23 00:56:22;;;;;;;8.13;5.38;;;27.20;99.90;;;;;;5074494;28;20017;-55
2023/06/23 00:58:49;;;;;;;10.18;6.40;;;27.10;99.90;;;;;;5073513;28;20040;-51
2023/06/23 01:01:15;;;;;;;10.00;6.07;;;27.10;99.90;;;;;;5072107;28;20020;-54
2023/06/23 01:03:41;;;;;;;11.70;6.95;;;27.10;99.90;;;;;;5074232;28;20044;-51
2023/06/23 01:06:27;;;;;;;12.32;6.85;;;27.20;99.90;;;;;;5065179;28;20023;-53
2023/06/23 01:09:00;;;;;;;7.78;6.70;;;27.20;99.90;;;;;;5071481;28;20062;-49
2023/06/23 01:11:38;;;;;;;10.63;6.97;;;27.20;99.90;;;;;;5073855;28;20474;-48
2023/06/23 01:14:18;;;;;;;8.52;5.60;;;27.30;99.90;;;;;;5073911;28;20034;-51
2023/06/23 01:17:03;;;;;;;9.40;5.85;;;27.30;99.90;;;;;;5057943;28;20083;-52
2023/06/23 01:19:54;;;;;;;9.90;5.00;;;27.20;99.90;;;;;;5054413;28;20096;-52
2023/06/23 01:22:30;;;;;;;10.13;5.82;;;27.20;99.90;;;;;;5066318;28;20470;-53
2023/06/23 01:25:29;;;;;;;10.18;5.47;;;27.40;99.90;;;;;;5072104;28;20021;-54
2023/06/23 01:28:25;;;;;;;9.48;5.88;;;27.30;99.90;;;;;;5060984;28;20083;-51
2023/06/23 01:30:53;;;;;;;11.00;5.78;;;27.20;99.90;;;;;;5059610;28;20035;-50
2023/06/23 01:33:25;;;;;;;12.50;5.45;;;27.20;99.90;;;;;;5071892;28;20048;-51
2023/06/23 01:36:06;;;;;;;8.93;5.45;;;27.10;99.90;;;;;;5072634;28;20074;-53
2023/06/23 01:38:40;;;;;;;11.82;5.65;;;27.20;99.90;;;;;;5070586;28;20020;-50
2023/06/23 01:41:11;;;;;;;11.05;5.95;;;27.30;99.90;;;;;;5071609;28;20039;-50
2023/06/23 01:43:38;;;;;;;7.38;4.82;;;27.20;99.90;;;;;;5072788;28;20029;-51
2023/06/23 01:46:14;;;;;;;10.90;5.43;;;27.20;99.90;;;;;;5071426;28;20024;-48
2023/06/23 01:48:44;;;;;;;10.77;6.25;;;27.20;99.90;;;;;;5072888;28;20045;-50
2023/06/23 01:51:11;;;;;;;11.60;5.45;;;27.10;99.90;;;;;;5069521;28;20045;-51
2023/06/23 01:53:38;;;;;;;7.25;5.32;;;27.20;99.90;;;;;;5071705;28;20062;-48
2023/06/23 01:56:06;;;;;;;9.35;6.18;;;27.30;99.90;;;;;;5070592;28;20108;-49
2023/06/23 01:58:38;;;;;;;9.57;5.60;;;27.30;99.90;;;;;;5072502;28;20055;-51
2023/06/23 02:01:06;;;;;;;10.80;5.47;;;27.20;99.90;;;;;;5071842;28;20036;-48
2023/06/23 02:03:32;;;;;;;12.02;5.85;;;27.10;99.90;;;;;;5073017;28;20013;-49
2023/06/23 02:05:59;;;;;;;9.73;6.22;;;27.00;99.90;;;;;;5072284;28;20033;-51
2023/06/23 02:08:27;;;;;;;10.88;5.63;;;27.20;99.90;;;;;;5073025;28;20063;-54
2023/06/23 02:10:54;;;;;;;9.95;6.32;;;27.10;99.90;;;;;;5069922;28;20165;-54
2023/06/23 02:13:22;;;;;;;10.32;5.40;;;27.10;99.90;;;;;;5064419;28;20081;-48
2023/06/23 02:15:50;;;;;;;7.72;5.75;;;26.90;99.90;;;;;;5072938;28;20120;-48
2023/06/23 02:18:17;;;;;;;11.63;5.75;;;27.00;99.90;;;;;;5071211;28;20029;-48
2023/06/23 02:20:45;;;;;;;9.73;5.70;;;26.80;99.90;;;;;;5059066;28;20033;-50
2023/06/23 02:23:13;;;;;;;10.07;5.15;;;27.00;99.90;;;;;;5071599;28;20017;-50
2023/06/23 02:25:39;;;;;;;9.07;6.10;;;27.00;99.90;;;;;;5072042;28;20055;-49
2023/06/23 02:28:08;;;;;;;11.95;6.32;;;27.00;99.90;;;;;;5070367;28;20055;-51
2023/06/23 02:30:34;;;;;;;11.18;5.70;;;26.90;99.90;;;;;;5072585;28;20027;-50
2023/06/23 02:33:00;;;;;;;9.57;5.63;;;26.90;99.90;;;;;;5071928;28;20055;-50
2023/06/23 02:35:27;;;;;;;8.55;6.07;;;26.90;99.90;;;;;;5072855;28;20056;-52
2023/06/23 02:37:58;;;;;;;6.25;5.60;;;26.80;99.90;;;;;;5072166;28;20025;-50
2023/06/23 02:40:25;;;;;;;7.75;6.10;;;26.80;99.90;;;;;;5059496;28;20024;-51
2023/06/23 02:43:43;;;;;;;8.07;6.60;;;26.80;99.90;;;;;;5072741;28;20032;-48
2023/06/23 02:46:11;;;;;;;9.88;6.20;;;26.60;99.90;;;;;;5070372;28;20385;-50
2023/06/23 02:48:40;;;;;;;6.82;6.07;;;26.70;99.90;;;;;;5072557;28;20072;-52
2023/06/23 02:51:11;;;;;;;10.10;6.32;;;26.60;99.90;;;;;;5071488;28;20029;-54
2023/06/23 02:53:57;;;;;;;10.75;6.38;;;26.40;99.90;;;;;;5070507;28;20027;-51
2023/06/23 02:56:25;;;;;;;7.30;6.13;;;26.30;99.90;;;;;;5071216;28;20462;-51
2023/06/23 02:58:59;;;;;;;9.80;6.05;;;26.40;99.90;;;;;;5069736;28;20366;-49
2023/06/23 03:01:26;;;;;;;10.93;6.15;;;26.50;99.90;;;;;;5072592;28;20036;-53
2023/06/23 03:03:53;;;;;;;9.48;6.05;;;26.40;99.90;;;;;;5071393;28;20052;-53
2023/06/23 03:06:21;;;;;;;9.98;6.45;;;26.40;99.90;;;;;;5072717;28;20441;-54
2023/06/23 03:08:50;;;;;;;8.43;6.30;;;26.20;99.90;;;;;;5070417;28;20068;-54
2023/06/23 03:11:20;;;;;;;9.07;6.28;;;26.20;99.90;;;;;;5070841;28;20024;-50
2023/06/23 03:13:47;;;;;;;7.95;5.90;;;26.20;99.90;;;;;;5072406;28;20490;-54
2023/06/23 03:16:23;;;;;;;8.63;5.75;;;26.20;99.90;;;;;;5071564;28;20059;-53
2023/06/23 03:18:59;;;;;;;10.93;5.75;;;26.20;99.90;;;;;;5072362;28;20115;-52
2023/06/23 03:21:24;;;;;;;6.22;5.63;;;26.20;99.90;;;;;;5070260;28;20024;-52
2023/06/23 03:23:54;;;;;;;6.68;5.85;;;26.10;99.90;;;;;;5072694;28;20115;-50
2023/06/23 03:26:20;;;;;;;9.40;6.13;;;26.20;99.90;;;;;;5071367;28;20119;-52
2023/06/23 03:28:48;;;;;;;8.32;6.20;;;26.20;99.90;;;;;;5070147;28;20413;-50
2023/06/23 03:31:17;;;;;;;9.07;6.07;;;26.10;99.90;;;;;;5072201;28;20025;-48
2023/06/23 03:33:46;;;;;;;6.75;5.57;;;26.20;99.90;;;;;;5069795;28;20371;-49
2023/06/23 03:36:23;;;;;;;7.18;5.90;;;26.10;99.90;;;;;;5072122;28;20420;-50
2023/06/23 03:38:55;;;;;;;9.35;5.78;;;26.00;99.90;;;;;;5070257;28;20432;-50
2023/06/23 03:41:21;;;;;;;9.18;6.22;;;26.00;99.90;;;;;;5070345;28;20024;-53
2023/06/23 03:43:53;;;;;;;6.78;5.53;;;25.90;99.90;;;;;;5074487;28;20474;-51
2023/06/23 03:46:23;;;;;;;6.75;5.75;;;25.90;99.90;;;;;;5074540;28;20020;-54
2023/06/23 03:48:54;;;;;;;8.77;5.20;;;26.00;99.90;;;;;;5075622;28;20417;-49
2023/06/23 03:51:24;;;;;;;7.63;5.28;;;25.90;99.90;;;;;;5074502;28;20029;-50
2023/06/23 03:53:51;;;;;;;6.38;5.00;;;25.90;99.90;;;;;;5073488;28;20070;-52
2023/06/23 03:56:18;;;;;;;9.55;4.78;;;25.80;99.90;;;;;;5074528;28;20104;-54
2023/06/23 03:58:45;;;;;;;6.63;4.70;;;25.60;99.90;;;;;;5059240;28;20432;-50
2023/06/23 04:01:13;;;;;;;6.05;4.63;;;25.60;99.90;;;;;;5075450;28;20074;-51
2023/06/23 04:03:40;;;;;;;8.27;4.60;;;25.70;99.90;;;;;;5071301;28;20043;-48
2023/06/23 04:06:09;;;;;;;10.02;4.95;;;25.70;99.90;;;;;;5066042;28;20021;-50
2023/06/23 04:08:38;;;;;;;8.82;5.43;;;25.60;99.90;;;;;;5073595;28;20081;-54
2023/06/23 04:11:05;;;;;;;5.82;4.65;;;25.60;99.90;;;;;;5073882;28;20024;-54
2023/06/23 04:13:33;;;;;;;5.43;4.80;;;25.50;99.90;;;;;;5075147;28;20034;-54
2023/06/23 04:16:02;;;;;;;6.20;5.03;;;25.60;99.90;;;;;;5074094;28;20024;-59
2023/06/23 04:18:29;;;;;;;8.52;5.28;;;25.50;99.90;;;;;;5061710;28;20083;-54
2023/06/23 04:20:57;;;;;;;5.93;4.38;;;25.70;99.90;;;;;;5074420;28;20115;-52
2023/06/23 04:23:25;;;;;;;6.88;4.85;;;25.80;99.90;;;;;;5075239;28;20047;-51
2023/06/23 04:25:51;;;;;;;5.82;5.30;;;25.80;99.90;;;;;;5072425;28;20504;-50
2023/06/23 04:28:22;;;;;;;6.93;4.75;;;25.90;99.90;;;;;;5071040;28;20052;-52
2023/06/23 04:30:48;;;;;;;10.27;5.13;;;25.70;99.90;;;;;;5069024;28;20074;-55
2023/06/23 04:33:14;;;;;;;6.82;4.85;;;25.70;99.90;;;;;;5069337;28;20017;-55
2023/06/23 04:35:40;;;;;;;8.85;5.03;;;25.80;99.90;;;;;;5075039;28;20063;-53
2023/06/23 04:38:12;;;;;;;6.32;4.80;;;25.80;99.90;;;;;;5070890;28;20386;-51
2023/06/23 04:40:40;;;;;;;7.43;4.88;;;25.80;99.90;;;;;;5074964;28;20032;-50
2023/06/23 04:43:12;;;;;;;6.95;5.18;;;25.90;99.90;;;;;;5073696;28;20369;-52
2023/06/23 04:45:47;;;;;;;8.15;4.85;;;25.90;99.90;;;;;;5074566;28;20462;-50
2023/06/23 04:48:16;;;;;;;9.82;5.28;;;26.00;99.90;;;;;;5071630;28;20036;-54
2023/06/23 04:50:44;;;;;;;8.02;5.40;;;26.00;99.90;;;;;;5072779;28;20107;-55
2023/06/23 04:53:18;;;;;;;7.15;5.10;;;25.90;99.90;;;;;;5071615;28;20032;-54
2023/06/23 04:55:49;;;;;;;10.48;5.30;;;26.00;99.90;;;;;;5074529;28;20081;-55
2023/06/23 04:58:18;;;;;;;7.97;5.57;;;26.00;99.90;;;;;;5073625;28;20036;-55
2023/06/23 05:01:10;;;;;;;9.25;5.15;;;26.10;99.90;;;;;;5072023;28;20036;-56
2023/06/23 05:03:38;;;;;;;5.78;5.13;;;26.10;99.90;;;;;;5074209;28;20020;-55
2023/06/23 05:06:05;;;;;;;8.38;5.20;;;26.20;99.90;;;;;;5071920;28;20459;-55
2023/06/23 05:08:32;;;;;;;16.63;8.40;;;26.20;99.90;;;;;;5072279;28;20040;-56
2023/06/23 05:11:05;;;;;;;6.53;5.90;;;26.20;99.90;;;;;;5073356;28;20099;-54
2023/06/23 05:13:32;;;;;;;9.20;6.70;;;26.20;99.90;;;;;;5074108;28;20028;-55
2023/06/23 05:16:00;;;;;;;7.38;5.93;;;26.20;99.90;;;;;;5072852;28;20020;-53
2023/06/23 05:18:28;;;;;;;8.85;6.65;;;26.30;99.90;;;;;;5064322;28;20028;-55
2023/06/23 05:20:58;;;;;;;8.98;6.90;;;26.30;99.90;;;;;;5065537;28;20029;-55
2023/06/23 05:23:26;;;;;;;9.45;5.93;;;26.40;99.90;;;;;;5074073;28;20141;-55
2023/06/23 05:25:56;;;;;;;9.77;6.97;;;26.40;99.90;;;;;;5069348;28;20025;-55
2023/06/23 05:28:24;;;;;;;7.57;5.80;;;26.40;99.90;;;;;;5073520;28;20478;-50
2023/06/23 05:30:52;;;;;;;9.98;6.40;;;26.40;99.90;;;;;;5071119;28;20529;-53
2023/06/23 05:33:18;;;;;;;10.07;6.90;;;26.40;99.90;;;;;;5073668;28;20027;-54
2023/06/23 05:35:45;;;;;;;8.38;6.47;;;26.50;99.90;;;;;;5071759;28;20051;-55
2023/06/23 05:38:12;;;;;;;8.88;6.07;;;26.50;99.90;;;;;;5072085;28;20508;-53
2023/06/23 05:40:39;;;;;;;12.75;6.43;;;26.60;99.90;;;;;;5072474;28;20032;-51
2023/06/23 05:43:05;;;;;;;11.88;6.82;;;26.60;99.90;;;;;;5072029;28;20024;-53
2023/06/23 05:45:30;;;;;;;9.50;6.70;;;26.60;99.90;;;;;;5068721;28;20035;-55
2023/06/23 05:48:15;;;;;;;12.55;6.72;;;26.60;99.90;;;;;;5070613;28;20033;-54
2023/06/23 05:50:42;;;;;;;10.15;6.75;;;26.70;99.90;;;;;;5056292;28;20390;-53
2023/06/23 05:53:13;;;;;;;14.48;7.38;;;26.70;99.90;;;;;;5062686;28;20021;-54
2023/06/23 05:55:43;;;;;;;12.82;6.50;;;26.70;99.90;;;;;;5072249;28;20099;-52
2023/06/23 05:58:12;;;;;;;12.57;6.90;;;26.80;99.90;;;;;;5073337;28;20041;-51
2023/06/23 06:00:47;;;;;;;13.05;6.78;;;26.80;99.90;;;;;;5070990;28;20020;-52
2023/06/23 06:03:18;;;;;;;14.30;6.97;;;26.90;99.90;;;;;;5072325;28;20036;-53
2023/06/23 06:05:47;;;;;;;11.30;6.65;;;26.80;99.90;;;;;;5063585;28;20390;-49
2023/06/23 06:08:14;;;;;;;10.18;6.72;;;26.90;99.90;;;;;;5072071;28;20060;-53
2023/06/23 06:10:41;;;;;;;11.60;6.60;;;26.90;99.90;;;;;;5072363;28;20054;-50
2023/06/23 06:13:07;;;;;;;10.80;7.07;;;26.90;99.90;;;;;;5072988;28;20052;-54
2023/06/23 06:15:34;;;;;;;13.98;7.15;;;27.00;99.90;;;;;;5072115;28;20024;-53
2023/06/23 06:18:04;;;;;;;11.25;7.03;;;27.00;99.90;;;;;;5071648;28;20028;-54
2023/06/23 06:20:31;;;;;;;18.52;7.63;;;27.00;99.90;;;;;;5071325;28;20031;-55
2023/06/23 06:22:57;;;;;;;20.10;8.07;;;27.10;99.90;;;;;;5072919;28;20020;-52
2023/06/23 06:25:25;;;;;;;12.63;7.25;;;27.10;99.90;;;;;;5070826;28;20035;-54
2023/06/23 06:27:52;;;;;;;12.23;7.95;;;27.20;99.90;;;;;;5072669;28;20044;-53
2023/06/23 06:30:20;;;;;;;12.73;8.38;;;27.20;99.90;;;;;;5067284;28;20120;-60
2023/06/23 06:32:46;;;;;;;12.13;8.10;;;27.20;99.90;;;;;;5072739;28;20032;-60
2023/06/23 06:35:15;;;;;;;16.77;9.27;;;27.20;99.90;;;;;;5069328;28;20398;-60
2023/06/23 06:37:47;;;;;;;15.30;9.52;;;27.30;99.90;;;;;;5068021;28;20052;-60
2023/06/23 06:40:15;;;;;;;10.32;8.45;;;27.30;99.90;;;;;;5071616;28;20027;-60
2023/06/23 06:42:41;;;;;;;14.48;8.13;;;27.30;99.90;;;;;;5073021;28;20047;-60
2023/06/23 06:45:07;;;;;;;11.45;7.93;;;27.40;99.90;;;;;;5071358;28;20036;-59
2023/06/23 06:47:40;;;;;;;9.00;7.72;;;27.40;99.90;;;;;;5071426;28;20482;-59
2023/06/23 06:50:07;;;;;;;10.13;8.30;;;27.40;99.90;;;;;;5070292;28;20041;-59
2023/06/23 06:52:35;;;;;;;16.77;8.48;;;27.50;99.90;;;;;;5071731;28;20474;-59
2023/06/23 06:55:02;;;;;;;11.75;7.65;;;27.50;99.90;;;;;;5071321;28;20401;-59
2023/06/23 06:57:29;;;;;;;11.90;7.60;;;27.50;99.90;;;;;;5068686;28;20064;-59
2023/06/23 06:59:54;;;;;;;14.27;7.95;;;27.60;99.90;;;;;;5058420;28;20037;-58
2023/06/23 07:02:20;;;;;;;13.80;9.10;;;27.60;99.90;;;;;;5070036;28;20033;-59
2023/06/23 07:05:08;;;;;;;13.15;9.00;;;27.70;99.90;;;;;;5069239;28;20036;-59
2023/06/23 07:07:34;;;;;;;12.27;8.95;;;27.60;99.90;;;;;;5069712;28;20043;-59
2023/06/23 07:09:59;;;;;;;10.55;8.32;;;27.80;99.90;;;;;;5072406;28;20040;-59
2023/06/23 07:12:25;;;;;;;10.85;8.48;;;27.80;99.90;;;;;;5069649;28;20107;-59
2023/06/23 07:14:51;;;;;;;15.25;9.55;;;27.80;99.90;;;;;;5071880;28;20064;-59
2023/06/23 07:17:17;;;;;;;11.27;8.77;;;27.70;99.90;;;;;;5073965;28;20483;-59
2023/06/23 07:19:43;;;;;;;11.98;9.15;;;27.90;99.90;;;;;;5075903;28;20040;-59
2023/06/23 07:22:09;;;;;;;12.63;8.50;;;27.80;99.90;;;;;;5072641;28;20024;-59
2023/06/23 07:24:34;;;;;;;10.95;8.73;;;27.70;99.90;;;;;;5076061;28;20041;-59
2023/06/23 07:27:00;;;;;;;14.38;8.82;;;27.90;99.90;;;;;;5068334;28;20110;-59
2023/06/23 07:29:26;;;;;;;9.52;8.38;;;27.90;99.90;;;;;;5074131;28;20072;-59
2023/06/23 07:31:52;;;;;;;13.32;8.40;;;28.00;99.90;;;;;;5075757;28;20036;-59
2023/06/23 07:34:18;;;;;;;10.38;7.85;;;28.00;99.90;;;;;;5073082;28;20888;-59
2023/06/23 07:36:43;;;;;;;12.05;7.82;;;28.10;99.90;;;;;;5071187;28;20032;-59
2023/06/23 07:39:10;;;;;;;17.92;8.63;;;28.10;99.90;;;;;;5075319;28;20024;-59
2023/06/23 07:41:36;;;;;;;12.73;8.02;;;28.20;99.90;;;;;;5069287;28;20025;-59
2023/06/23 07:44:02;;;;;;;13.15;7.65;;;28.30;99.90;;;;;;5073989;28;20424;-59
2023/06/23 07:46:29;;;;;;;13.40;7.95;;;28.30;99.90;;;;;;5069936;28;20021;-59
2023/06/23 07:48:55;;;;;;;11.90;7.72;;;28.30;99.90;;;;;;5070532;28;20441;-59
2023/06/23 07:51:21;;;;;;;13.50;7.60;;;28.20;99.90;;;;;;5061993;28;20029;-58
2023/06/23 07:53:46;;;;;;;9.52;7.88;;;28.30;99.90;;;;;;5067286;28;20028;-58
2023/06/23 07:56:12;;;;;;;12.00;7.35;;;28.30;99.90;;;;;;5064125;28;20449;-59
2023/06/23 07:58:39;;;;;;;12.48;7.18;;;28.40;99.90;;;;;;5068722;28;20028;-50
2023/06/23 08:01:05;;;;;;;11.70;7.30;;;28.40;99.90;;;;;;5067005;28;20029;-49
2023/06/23 08:03:31;;;;;;;9.82;6.80;;;28.90;99.90;;;;;;5065814;28;20127;-49
2023/06/23 08:05:57;;;;;;;8.85;5.60;;;28.90;99.90;;;;;;5068388;28;20375;-48
2023/06/23 08:08:23;;;;;;;9.40;5.22;;;29.00;99.90;;;;;;5065910;28;20050;-51
2023/06/23 08:10:48;;;;;;;9.00;4.57;;;29.20;99.90;;;;;;5070017;28;20033;-51
2023/06/23 08:13:14;;;;;;;9.93;4.43;;;29.50;99.90;;;;;;5063290;28;20335;-50
2023/06/23 08:15:41;;;;;;;5.90;4.10;;;29.50;99.90;;;;;;5063627;28;20025;-49
2023/06/23 08:18:07;;;;;;;6.78;4.07;;;29.70;99.90;;;;;;5065926;28;20079;-52
2023/06/23 08:20:33;;;;;;;5.72;4.07;;;29.80;99.90;;;;;;5063480;28;20044;-49
2023/06/23 08:22:59;;;;;;;6.53;4.10;;;29.90;99.90;;;;;;5068560;28;20029;-52
2023/06/23 08:25:24;;;;;;;5.25;3.10;;;30.10;99.90;;;;;;5065840;28;20068;-50
2023/06/23 08:27:50;;;;;;;5.05;2.45;;;30.10;99.90;;;;;;5065471;28;20083;-48
2023/06/23 08:30:24;;;;;;;7.82;3.00;;;29.90;99.90;;;;;;5066509;28;20558;-49
2023/06/23 08:32:49;;;;;;;6.07;2.50;;;30.00;99.90;;;;;;5062878;28;20032;-49
2023/06/23 08:35:15;;;;;;;3.90;2.10;;;30.30;99.90;;;;;;5065181;28;20033;-48
2023/06/23 08:37:40;;;;;;;2.95;2.05;;;30.30;99.90;;;;;;5065146;28;20029;-50
2023/06/23 08:40:07;;;;;;;1.70;1.60;;;30.20;99.90;;;;;;5065981;28;20085;-47
2023/06/23 08:42:33;;;;;;;5.63;1.98;;;30.20;99.90;;;;;;5065732;28;20044;-50
2023/06/23 08:45:03;;;;;;;4.45;1.42;;;30.60;99.90;;;;;;5073324;28;20017;-49
2023/06/23 08:47:31;;;;;;;2.28;1.60;;;30.30;99.90;;;;;;5072361;28;20028;-48
2023/06/23 08:49:57;;;;;;;2.17;1.55;;;30.20;99.90;;;;;;5069881;28;20037;-49
2023/06/23 08:52:24;;;;;;;6.07;1.70;;;30.60;99.90;;;;;;5074412;28;20490;-49
2023/06/23 08:54:50;;;;;;;2.45;1.55;;;31.20;99.90;;;;;;5073202;28;20037;-50
2023/06/23 08:57:17;;;;;;;2.90;1.73;;;31.00;99.90;;;;;;5072233;28;20053;-49
2023/06/23 08:59:43;;;;;;;2.53;2.00;;;31.20;99.90;;;;;;5073373;28;20034;-49
2023/06/23 09:02:09;;;;;;;2.72;1.95;;;31.20;99.90;;;;;;5068256;28;20489;-49
2023/06/23 09:04:34;;;;;;;6.38;1.85;;;31.40;99.90;;;;;;5078827;28;20029;-50
2023/06/23 09:07:00;;;;;;;4.38;1.70;;;31.70;99.90;;;;;;5073760;28;20020;-49
2023/06/23 09:09:57;;;;;;;3.60;1.77;;;31.80;99.90;;;;;;5072631;28;20040;-48
2023/06/23 09:12:24;;;;;;;4.53;1.50;;;31.60;99.90;;;;;;5070515;28;20025;-48
2023/06/23 09:14:51;;;;;;;2.92;1.27;;;31.70;99.90;;;;;;5058190;28;20043;-49
2023/06/23 09:17:21;;;;;;;5.78;1.75;;;31.60;99.90;;;;;;5067641;28;20382;-49
2023/06/23 09:19:49;;;;;;;4.05;1.40;;;31.40;99.90;;;;;;5073707;28;20031;-48
2023/06/23 09:22:20;;;;;;;4.13;1.50;;;31.50;99.90;;;;;;5072803;28;20374;-49
2023/06/23 09:24:49;;;;;;;2.55;1.42;;;31.30;99.90;;;;;;5073738;28;20021;-47
2023/06/23 09:27:15;;;;;;;2.38;1.20;;;31.30;99.90;;;;;;5068224;28;20044;-51
2023/06/23 09:29:41;;;;;;;2.83;1.42;;;31.20;99.90;;;;;;5069098;28;20055;-52
2023/06/23 09:32:10;;;;;;;2.88;1.13;;;31.20;99.90;;;;;;5070099;28;20025;-53
2023/06/23 09:34:38;;;;;;;2.35;1.35;;;31.30;99.90;;;;;;5073548;28;20024;-51
2023/06/23 09:37:12;;;;;;;3.28;1.42;;;31.30;99.90;;;;;;5071372;28;20428;-50
2023/06/23 09:39:44;;;;;;;3.00;1.48;;;31.50;99.90;;;;;;5062111;28;20101;-50
2023/06/23 09:42:12;;;;;;;3.85;1.33;;;31.50;99.90;;;;;;5071373;28;20013;-54
2023/06/23 09:44:45;;;;;;;5.85;1.50;;;31.60;99.90;;;;;;5070732;28;20477;-52
2023/06/23 09:47:14;;;;;;;3.23;1.50;;;31.60;99.90;;;;;;5057658;28;20051;-52
2023/06/23 09:49:42;;;;;;;4.18;1.35;;;31.90;99.90;;;;;;5069623;28;20325;-52
2023/06/23 09:52:11;;;;;;;1.95;1.27;;;31.90;99.90;;;;;;5069841;28;20505;-51
2023/06/23 09:54:39;;;;;;;6.03;5.43;;;31.90;99.90;;;;;;5073057;28;20051;-52
2023/06/23 09:57:17;;;;;;;5.90;3.42;;;32.20;99.90;;;;;;5068872;28;20021;-52
2023/06/23 09:59:44;;;;;;;2.33;1.90;;;32.20;99.90;;;;;;5071817;28;20127;-50
2023/06/23 10:02:26;;;;;;;3.95;1.95;;;31.90;99.90;;;;;;5072067;28;20390;-55
2023/06/23 10:05:01;;;;;;;1.88;1.77;;;31.80;99.90;;;;;;5068082;28;20027;-53
2023/06/23 10:07:28;;;;;;;4.13;2.53;;;32.10;99.90;;;;;;5072143;28;20055;-52
2023/06/23 10:09:56;;;;;;;3.30;1.92;;;32.10;99.90;;;;;;5071189;28;20028;-50
2023/06/23 10:12:23;;;;;;;2.17;1.48;;;32.30;99.90;;;;;;5072634;28;20028;-50
2023/06/23 10:14:50;;;;;;;3.83;1.60;;;32.60;99.90;;;;;;5072061;28;20036;-50
2023/06/23 10:17:16;;;;;;;4.07;1.80;;;32.60;99.90;;;;;;5068077;28;20024;-53
2023/06/23 10:19:45;;;;;;;3.00;1.65;;;32.20;99.90;;;;;;5070144;28;20029;-54
2023/06/23 10:22:13;;;;;;;2.63;1.70;;;32.20;99.90;;;;;;5072841;28;20041;-54
2023/06/23 10:24:40;;;;;;;3.17;1.75;;;32.80;99.90;;;;;;5071051;28;20025;-53
2023/06/23 10:27:09;;;;;;;2.63;1.75;;;33.20;99.90;;;;;;5071385;28;20041;-54
2023/06/23 10:29:41;;;;;;;6.25;1.77;;;33.20;99.90;;;;;;5071206;28;20393;-53
2023/06/23 10:32:11;;;;;;;3.13;2.40;;;33.50;99.90;;;;;;5071052;28;20572;-52
2023/06/23 10:34:41;;;;;;;5.43;2.15;;;33.30;99.90;;;;;;5071970;28;20535;-54
2023/06/23 10:37:12;;;;;;;4.43;2.40;;;33.10;99.90;;;;;;5072662;28;20024;-49
2023/06/23 10:39:40;;;;;;;2.90;2.03;;;33.10;99.90;;;;;;5071851;28;20032;-51
2023/06/23 10:42:11;;;;;;;3.65;2.10;;;32.90;99.90;;;;;;5073107;28;20051;-51
2023/06/23 10:44:39;;;;;;;2.58;2.17;;;33.00;99.90;;;;;;5070383;28;20039;-51
2023/06/23 10:47:05;;;;;;;4.57;2.40;;;32.80;99.90;;;;;;5070117;28;20374;-49
2023/06/23 10:49:31;;;;;;;4.18;2.75;;;32.90;99.90;;;;;;5069444;28;20442;-48
2023/06/23 10:51:58;;;;;;;5.30;2.90;;;32.80;99.90;;;;;;5075943;28;20416;-53
2023/06/23 10:54:28;;;;;;;2.60;2.40;;;33.00;99.90;;;;;;5075605;28;20355;-48
2023/06/23 10:56:54;;;;;;;4.53;2.70;;;33.30;99.90;;;;;;5076651;28;20020;-49
2023/06/23 10:59:28;;;;;;;3.38;2.55;;;33.40;99.90;;;;;;5073652;28;20025;-48
2023/06/23 11:02:00;;;;;;;6.10;2.35;;;33.10;99.90;;;;;;5070716;28;20104;-53
2023/06/23 11:04:34;;;;;;;4.72;2.58;;;33.40;99.90;;;;;;5074119;28;20024;-54
2023/06/23 11:07:03;;;;;;;4.85;2.40;;;33.30;99.90;;;;;;5073854;28;20013;-49
2023/06/23 11:09:54;;;;;;;3.58;2.88;;;33.20;99.90;;;;;;5075783;28;20041;-50
2023/06/23 11:13:09;;;;;;;3.83;2.90;;;33.30;99.90;;;;;;5073608;28;20471;-56
2023/06/23 11:15:37;;;;;;;2.90;2.70;;;33.30;99.90;;;;;;5066771;28;20048;-50
2023/06/23 11:18:07;;;;;;;3.20;2.88;;;33.70;99.90;;;;;;5074015;28;20031;-51
2023/06/23 11:20:39;;;;;;;3.25;2.85;;;35.60;99.90;;;;;;5075399;28;20060;-48
2023/06/23 11:23:12;;;;;;;5.57;2.75;;;38.70;99.90;;;;;;5072540;28;20031;-51
2023/06/23 11:25:49;;;;;;;3.20;3.00;;;40.30;99.90;;;;;;5072392;28;20105;-49
2023/06/23 11:28:38;;;;;;;8.13;3.45;;;42.20;99.90;;;;;;5107474;28;20469;-49
2023/06/23 11:31:16;;;;;;;4.47;3.83;;;42.40;99.90;;;;;;5074143;28;20081;-50
2023/06/23 11:33:44;;;;;;;5.15;4.13;;;41.60;99.90;;;;;;5075236;28;20039;-47
2023/06/23 11:36:11;;;;;;;3.70;3.50;;;41.90;99.90;;;;;;5074905;28;20048;-51
2023/06/23 11:38:40;;;;;;;4.78;4.47;;;42.20;99.90;;;;;;5073475;28;20032;-52
2023/06/23 11:41:06;;;;;;;4.35;4.05;;;43.10;99.90;;;;;;5075089;28;20055;-54
2023/06/23 11:43:38;;;;;;;4.40;4.10;;;44.70;99.90;;;;;;5075063;28;20454;-49
2023/06/23 11:46:14;;;;;;;5.03;4.40;;;46.30;99.90;;;;;;5074818;28;20031;-50
2023/06/23 11:48:46;;;;;;;5.50;5.10;;;44.90;99.90;;;;;;5074688;28;20098;-49
2023/06/23 11:51:13;;;;;;;5.93;5.43;;;44.90;99.90;;;;;;5069357;28;20032;-52
2023/06/23 11:53:42;;;;;;;5.05;4.75;;;45.30;99.90;;;;;;5068985;28;20022;-50
2023/06/23 11:56:09;;;;;;;5.28;4.93;;;45.60;99.90;;;;;;5074915;28;20025;-54
2023/06/23 11:58:35;;;;;;;6.55;5.05;;;45.30;99.90;;;;;;5077006;28;20067;-53
2023/06/23 12:01:02;;;;;;;6.82;5.88;;;45.30;99.90;;;;;;5074803;28;20389;-51
2023/06/23 12:03:32;;;;;;;6.03;5.63;;;45.40;99.90;;;;;;5067587;28;20027;-50
2023/06/23 12:06:01;;;;;;;6.30;5.80;;;45.10;99.90;;;;;;5074536;28;20018;-52
2023/06/23 12:08:27;;;;;;;6.25;5.80;;;44.70;99.90;;;;;;5072685;28;20182;-49
2023/06/23 12:10:53;;;;;;;5.85;5.45;;;43.40;99.90;;;;;;5074355;28;20016;-54
2023/06/23 12:13:20;;;;;;;6.47;5.97;;;41.80;99.90;;;;;;5072879;28;20102;-49
2023/06/23 12:15:46;;;;;;;6.30;5.63;;;41.30;99.90;;;;;;5074678;28;20161;-49
2023/06/23 12:18:12;;;;;;;6.13;5.63;;;41.40;99.90;;;;;;5074171;28;21363;-50
2023/06/23 12:20:39;;;;;;;5.72;5.30;;;41.10;99.90;;;;;;5074347;28;20032;-50
2023/06/23 12:23:08;;;;;;;7.80;6.20;;;43.40;99.90;;;;;;5074502;28;20498;-51
2023/06/23 12:25:38;;;;;;;6.35;5.90;;;43.50;99.90;;;;;;5066900;28;20021;-49
2023/06/23 12:28:05;;;;;;;6.38;5.88;;;41.00;99.90;;;;;;5073817;28;20055;-53
2023/06/23 12:30:45;;;;;;;7.28;5.63;;;39.50;99.90;;;;;;5072963;28;20039;-51
2023/06/23 12:33:23;;;;;;;5.65;5.18;;;39.20;99.90;;;;;;5073748;28;20016;-50
2023/06/23 12:36:00;;;;;;;6.75;6.05;;;39.80;99.90;;;;;;5068964;28;20110;-52
2023/06/23 12:38:27;;;;;;;8.35;5.75;;;39.40;99.90;;;;;;5057492;28;20033;-54
2023/06/23 12:40:54;;;;;;;7.55;5.45;;;38.80;99.90;;;;;;5057702;28;20114;-55
2023/06/23 12:43:21;;;;;;;6.20;5.70;;;39.10;99.90;;;;;;5070171;28;20044;-50
2023/06/23 12:45:53;;;;;;;5.80;5.05;;;40.20;99.90;;;;;;5070208;28;20033;-55
2023/06/23 12:48:23;;;;;;;5.25;4.90;;;41.80;99.90;;;;;;5058958;28;20151;-54
2023/06/23 12:50:58;;;;;;;5.68;5.18;;;41.30;99.90;;;;;;5074007;28;20017;-53
2023/06/23 12:53:23;;;;;;;5.35;4.95;;;39.80;99.90;;;;;;5072792;28;20020;-52